sensor_id;sensor_type;location;lat;lon;timestamp;P1;durP1;ratioP1;P2;durP2;ratioP2
70558;SDS011;58108;48.094;11.838;2023-07-13T00:00:46;3.73;;;1.30;;
70558;SDS011;58108;48.094;11.838;2023-07-13T00:03:11;4.00;;;1.30;;
70558;SDS011;58108;48.094;11.838;2023-07-13T00:05:38;4.05;;;1.73;;
70558;SDS011;58108;48.094;11.838;2023-07-13T00:08:03;3.73;;;1.80;;
70558;SDS011;58108;48.094;11.838;2023-07-13T00:10:28;4.70;;;1.60;;
70558;SDS011;58108;48.094;11.838;2023-07-13T00:12:53;4.77;;;2.00;;
70558;SDS011;58108;48.094;11.838;2023-07-13T00:15:21;4.35;;;1.45;;
70558;SDS011;58108;48.094;11.838;2023-07-13T00:17:48;4.07;;;1.50;;
70558;SDS011;58108;48.094;11.838;2023-07-13T00:20:13;3.15;;;1.33;;
70558;SDS011;58108;48.094;11.838;2023-07-13T00:22:39;4.33;;;1.57;;
70558;SDS011;58108;48.094;11.838;2023-07-13T00:25:04;4.17;;;1.63;;
70558;SDS011;58108;48.094;11.838;2023-07-13T00:27:31;4.20;;;1.40;;
70558;SDS011;58108;48.094;11.838;2023-07-13T00:29:56;4.20;;;1.75;;
70558;SDS011;58108;48.094;11.838;2023-07-13T00:32:22;5.17;;;1.57;;
70558;SDS011;58108;48.094;11.838;2023-07-13T00:34:47;4.50;;;1.70;;
70558;SDS011;58108;48.094;11.838;2023-07-13T00:37:12;4.73;;;1.70;;
70558;SDS011;58108;48.094;11.838;2023-07-13T00:39:37;5.80;;;1.97;;
70558;SDS011;58108;48.094;11.838;2023-07-13T00:42:04;4.70;;;1.70;;
70558;SDS011;58108;48.094;11.838;2023-07-13T00:44:29;4.20;;;1.67;;
70558;SDS011;58108;48.094;11.838;2023-07-13T00:46:55;3.25;;;1.52;;
70558;SDS011;58108;48.094;11.838;2023-07-13T00:49:22;4.35;;;1.58;;
70558;SDS011;58108;48.094;11.838;2023-07-13T00:51:49;4.10;;;1.70;;
70558;SDS011;58108;48.094;11.838;2023-07-13T00:54:17;3.93;;;1.80;;
70558;SDS011;58108;48.094;11.838;2023-07-13T00:56:43;5.00;;;1.90;;
70558;SDS011;58108;48.094;11.838;2023-07-13T00:59:10;4.90;;;1.70;;
70558;SDS011;58108;48.094;11.838;2023-07-13T01:01:36;3.90;;;1.95;;
70558;SDS011;58108;48.094;11.838;2023-07-13T01:04:02;4.17;;;1.83;;
70558;SDS011;58108;48.094;11.838;2023-07-13T01:06:27;7.10;;;2.00;;
70558;SDS011;58108;48.094;11.838;2023-07-13T01:08:52;5.23;;;1.90;;
70558;SDS011;58108;48.094;11.838;2023-07-13T01:11:19;4.85;;;1.90;;
70558;SDS011;58108;48.094;11.838;2023-07-13T01:13:46;4.75;;;1.88;;
70558;SDS011;58108;48.094;11.838;2023-07-13T01:16:13;4.83;;;1.70;;
70558;SDS011;58108;48.094;11.838;2023-07-13T01:18:39;4.75;;;2.03;;
70558;SDS011;58108;48.094;11.838;2023-07-13T01:21:05;4.40;;;1.73;;
70558;SDS011;58108;48.094;11.838;2023-07-13T01:23:30;3.93;;;1.77;;
70558;SDS011;58108;48.094;11.838;2023-07-13T01:25:56;3.43;;;1.50;;
70558;SDS011;58108;48.094;11.838;2023-07-13T01:28:22;4.50;;;1.60;;
70558;SDS011;58108;48.094;11.838;2023-07-13T01:30:47;5.10;;;1.90;;
70558;SDS011;58108;48.094;11.838;2023-07-13T01:33:14;4.07;;;1.77;;
70558;SDS011;58108;48.094;11.838;2023-07-13T01:35:39;6.63;;;2.10;;
70558;SDS011;58108;48.094;11.838;2023-07-13T01:38:05;5.73;;;2.10;;
70558;SDS011;58108;48.094;11.838;2023-07-13T01:40:30;4.60;;;2.10;;
70558;SDS011;58108;48.094;11.838;2023-07-13T01:42:56;10.27;;;2.10;;
70558;SDS011;58108;48.094;11.838;2023-07-13T01:45:21;5.43;;;2.30;;
70558;SDS011;58108;48.094;11.838;2023-07-13T01:47:46;5.87;;;1.80;;
70558;SDS011;58108;48.094;11.838;2023-07-13T01:50:11;5.20;;;2.03;;
70558;SDS011;58108;48.094;11.838;2023-07-13T01:52:37;5.43;;;2.27;;
70558;SDS011;58108;48.094;11.838;2023-07-13T01:55:02;6.97;;;2.33;;
70558;SDS011;58108;48.094;11.838;2023-07-13T01:57:27;6.67;;;2.27;;
70558;SDS011;58108;48.094;11.838;2023-07-13T01:59:52;6.07;;;2.13;;
70558;SDS011;58108;48.094;11.838;2023-07-13T02:02:18;5.50;;;2.20;;
70558;SDS011;58108;48.094;11.838;2023-07-13T02:04:43;8.53;;;2.30;;
70558;SDS011;58108;48.094;11.838;2023-07-13T02:07:08;7.60;;;2.40;;
70558;SDS011;58108;48.094;11.838;2023-07-13T02:09:34;8.70;;;2.40;;
70558;SDS011;58108;48.094;11.838;2023-07-13T02:11:59;6.57;;;1.90;;
70558;SDS011;58108;48.094;11.838;2023-07-13T02:14:24;5.93;;;2.07;;
70558;SDS011;58108;48.094;11.838;2023-07-13T02:16:49;5.73;;;2.00;;
70558;SDS011;58108;48.094;11.838;2023-07-13T02:19:15;4.03;;;1.73;;
70558;SDS011;58108;48.094;11.838;2023-07-13T02:21:40;7.57;;;1.93;;
70558;SDS011;58108;48.094;11.838;2023-07-13T02:24:05;5.37;;;2.00;;
70558;SDS011;58108;48.094;11.838;2023-07-13T02:26:30;4.23;;;1.90;;
70558;SDS011;58108;48.094;11.838;2023-07-13T02:28:55;3.73;;;1.60;;
70558;SDS011;58108;48.094;11.838;2023-07-13T02:31:20;4.20;;;1.80;;
70558;SDS011;58108;48.094;11.838;2023-07-13T02:33:46;4.57;;;1.70;;
70558;SDS011;58108;48.094;11.838;2023-07-13T02:36:11;3.90;;;1.57;;
70558;SDS011;58108;48.094;11.838;2023-07-13T02:38:36;4.40;;;1.90;;
70558;SDS011;58108;48.094;11.838;2023-07-13T02:41:05;5.07;;;2.13;;
70558;SDS011;58108;48.094;11.838;2023-07-13T02:43:31;3.90;;;1.83;;
70558;SDS011;58108;48.094;11.838;2023-07-13T02:45:56;5.70;;;1.80;;
70558;SDS011;58108;48.094;11.838;2023-07-13T02:48:21;5.23;;;1.90;;
70558;SDS011;58108;48.094;11.838;2023-07-13T02:50:46;6.33;;;1.90;;
70558;SDS011;58108;48.094;11.838;2023-07-13T02:53:11;4.60;;;1.80;;
70558;SDS011;58108;48.094;11.838;2023-07-13T02:55:37;6.87;;;2.07;;
70558;SDS011;58108;48.094;11.838;2023-07-13T02:58:02;4.53;;;1.83;;
70558;SDS011;58108;48.094;11.838;2023-07-13T03:00:27;5.97;;;2.23;;
70558;SDS011;58108;48.094;11.838;2023-07-13T03:02:53;4.47;;;2.00;;
70558;SDS011;58108;48.094;11.838;2023-07-13T03:05:18;6.30;;;1.97;;
70558;SDS011;58108;48.094;11.838;2023-07-13T03:07:43;5.53;;;1.73;;
70558;SDS011;58108;48.094;11.838;2023-07-13T03:10:09;4.27;;;1.87;;
70558;SDS011;58108;48.094;11.838;2023-07-13T03:12:34;5.00;;;1.75;;
70558;SDS011;58108;48.094;11.838;2023-07-13T03:14:59;6.10;;;1.97;;
70558;SDS011;58108;48.094;11.838;2023-07-13T03:17:24;4.25;;;1.85;;
70558;SDS011;58108;48.094;11.838;2023-07-13T03:19:50;5.77;;;2.20;;
70558;SDS011;58108;48.094;11.838;2023-07-13T03:22:16;5.67;;;2.50;;
70558;SDS011;58108;48.094;11.838;2023-07-13T03:24:41;7.50;;;2.45;;
70558;SDS011;58108;48.094;11.838;2023-07-13T03:27:07;6.90;;;2.58;;
70558;SDS011;58108;48.094;11.838;2023-07-13T03:29:32;4.43;;;2.40;;
70558;SDS011;58108;48.094;11.838;2023-07-13T03:31:57;7.07;;;2.70;;
70558;SDS011;58108;48.094;11.838;2023-07-13T03:34:22;7.60;;;2.60;;
70558;SDS011;58108;48.094;11.838;2023-07-13T03:36:47;5.47;;;2.70;;
70558;SDS011;58108;48.094;11.838;2023-07-13T03:39:13;6.57;;;2.40;;
70558;SDS011;58108;48.094;11.838;2023-07-13T03:41:38;6.37;;;3.10;;
70558;SDS011;58108;48.094;11.838;2023-07-13T03:44:03;6.40;;;2.50;;
70558;SDS011;58108;48.094;11.838;2023-07-13T03:46:29;5.33;;;2.50;;
70558;SDS011;58108;48.094;11.838;2023-07-13T03:48:54;7.75;;;2.58;;
70558;SDS011;58108;48.094;11.838;2023-07-13T03:51:19;6.37;;;2.60;;
70558;SDS011;58108;48.094;11.838;2023-07-13T03:53:45;6.40;;;2.20;;
70558;SDS011;58108;48.094;11.838;2023-07-13T03:56:11;4.60;;;2.15;;
70558;SDS011;58108;48.094;11.838;2023-07-13T03:58:37;7.53;;;2.47;;
70558;SDS011;58108;48.094;11.838;2023-07-13T04:01:03;5.45;;;2.35;;
70558;SDS011;58108;48.094;11.838;2023-07-13T04:03:28;6.10;;;2.20;;
70558;SDS011;58108;48.094;11.838;2023-07-13T04:05:55;4.63;;;2.17;;
70558;SDS011;58108;48.094;11.838;2023-07-13T04:08:32;6.63;;;2.38;;
70558;SDS011;58108;48.094;11.838;2023-07-13T04:10:57;6.38;;;2.15;;
70558;SDS011;58108;48.094;11.838;2023-07-13T04:13:23;7.23;;;2.53;;
70558;SDS011;58108;48.094;11.838;2023-07-13T04:15:48;6.25;;;2.75;;
70558;SDS011;58108;48.094;11.838;2023-07-13T04:18:14;5.37;;;2.30;;
70558;SDS011;58108;48.094;11.838;2023-07-13T04:20:39;5.67;;;2.70;;
70558;SDS011;58108;48.094;11.838;2023-07-13T04:23:04;5.77;;;2.50;;
70558;SDS011;58108;48.094;11.838;2023-07-13T04:25:29;5.93;;;2.40;;
70558;SDS011;58108;48.094;11.838;2023-07-13T04:27:54;5.20;;;2.00;;
70558;SDS011;58108;48.094;11.838;2023-07-13T04:30:20;5.20;;;2.33;;
70558;SDS011;58108;48.094;11.838;2023-07-13T04:32:45;7.50;;;2.90;;
70558;SDS011;58108;48.094;11.838;2023-07-13T04:35:11;6.38;;;2.53;;
70558;SDS011;58108;48.094;11.838;2023-07-13T04:37:36;6.27;;;2.83;;
70558;SDS011;58108;48.094;11.838;2023-07-13T04:40:02;6.17;;;2.90;;
70558;SDS011;58108;48.094;11.838;2023-07-13T04:42:28;5.50;;;2.60;;
70558;SDS011;58108;48.094;11.838;2023-07-13T04:44:53;8.70;;;3.07;;
70558;SDS011;58108;48.094;11.838;2023-07-13T04:47:18;5.77;;;2.80;;
70558;SDS011;58108;48.094;11.838;2023-07-13T04:49:44;6.33;;;2.60;;
70558;SDS011;58108;48.094;11.838;2023-07-13T04:52:09;7.55;;;2.65;;
70558;SDS011;58108;48.094;11.838;2023-07-13T04:54:34;4.87;;;2.10;;
70558;SDS011;58108;48.094;11.838;2023-07-13T04:57:00;6.33;;;2.80;;
70558;SDS011;58108;48.094;11.838;2023-07-13T04:59:25;4.97;;;2.47;;
70558;SDS011;58108;48.094;11.838;2023-07-13T05:01:51;5.53;;;2.60;;
70558;SDS011;58108;48.094;11.838;2023-07-13T05:04:16;5.15;;;2.40;;
70558;SDS011;58108;48.094;11.838;2023-07-13T05:06:41;5.83;;;2.60;;
70558;SDS011;58108;48.094;11.838;2023-07-13T05:09:07;5.60;;;2.50;;
70558;SDS011;58108;48.094;11.838;2023-07-13T05:11:32;6.00;;;2.47;;
70558;SDS011;58108;48.094;11.838;2023-07-13T05:13:57;5.97;;;2.30;;
70558;SDS011;58108;48.094;11.838;2023-07-13T05:16:22;4.93;;;2.20;;
70558;SDS011;58108;48.094;11.838;2023-07-13T05:18:48;4.73;;;2.10;;
70558;SDS011;58108;48.094;11.838;2023-07-13T05:21:13;5.83;;;2.20;;
70558;SDS011;58108;48.094;11.838;2023-07-13T05:23:38;3.93;;;1.90;;
70558;SDS011;58108;48.094;11.838;2023-07-13T05:26:04;4.00;;;2.00;;
70558;SDS011;58108;48.094;11.838;2023-07-13T05:28:30;6.28;;;2.03;;
70558;SDS011;58108;48.094;11.838;2023-07-13T05:30:55;5.25;;;2.10;;
70558;SDS011;58108;48.094;11.838;2023-07-13T05:33:21;5.05;;;2.00;;
70558;SDS011;58108;48.094;11.838;2023-07-13T05:35:46;4.30;;;2.00;;
70558;SDS011;58108;48.094;11.838;2023-07-13T05:38:11;5.50;;;1.87;;
70558;SDS011;58108;48.094;11.838;2023-07-13T05:40:37;7.63;;;2.20;;
70558;SDS011;58108;48.094;11.838;2023-07-13T05:43:02;4.60;;;1.67;;
70558;SDS011;58108;48.094;11.838;2023-07-13T05:45:27;6.87;;;1.70;;
70558;SDS011;58108;48.094;11.838;2023-07-13T05:47:53;4.27;;;1.73;;
70558;SDS011;58108;48.094;11.838;2023-07-13T05:50:18;5.50;;;1.67;;
70558;SDS011;58108;48.094;11.838;2023-07-13T05:52:43;5.00;;;1.90;;
70558;SDS011;58108;48.094;11.838;2023-07-13T05:55:08;5.33;;;2.07;;
70558;SDS011;58108;48.094;11.838;2023-07-13T05:57:33;4.03;;;1.87;;
70558;SDS011;58108;48.094;11.838;2023-07-13T05:59:59;4.50;;;1.70;;
70558;SDS011;58108;48.094;11.838;2023-07-13T06:02:24;5.10;;;1.70;;
70558;SDS011;58108;48.094;11.838;2023-07-13T06:04:50;5.15;;;2.00;;
70558;SDS011;58108;48.094;11.838;2023-07-13T06:07:15;7.00;;;2.60;;
70558;SDS011;58108;48.094;11.838;2023-07-13T06:09:40;4.70;;;1.87;;
70558;SDS011;58108;48.094;11.838;2023-07-13T06:12:06;5.30;;;2.00;;
70558;SDS011;58108;48.094;11.838;2023-07-13T06:14:31;5.43;;;1.90;;
70558;SDS011;58108;48.094;11.838;2023-07-13T06:16:56;4.73;;;1.90;;
70558;SDS011;58108;48.094;11.838;2023-07-13T06:19:22;4.13;;;1.80;;
70558;SDS011;58108;48.094;11.838;2023-07-13T06:21:47;4.80;;;1.87;;
70558;SDS011;58108;48.094;11.838;2023-07-13T06:24:12;4.30;;;1.83;;
70558;SDS011;58108;48.094;11.838;2023-07-13T06:26:37;6.30;;;1.70;;
70558;SDS011;58108;48.094;11.838;2023-07-13T06:29:02;4.67;;;2.00;;
70558;SDS011;58108;48.094;11.838;2023-07-13T06:31:28;3.97;;;2.07;;
70558;SDS011;58108;48.094;11.838;2023-07-13T06:33:53;4.07;;;1.98;;
70558;SDS011;58108;48.094;11.838;2023-07-13T06:36:18;3.90;;;1.80;;
70558;SDS011;58108;48.094;11.838;2023-07-13T06:38:43;4.60;;;1.90;;
70558;SDS011;58108;48.094;11.838;2023-07-13T06:41:09;5.17;;;1.87;;
70558;SDS011;58108;48.094;11.838;2023-07-13T06:43:34;5.57;;;1.90;;
70558;SDS011;58108;48.094;11.838;2023-07-13T06:45:59;7.10;;;2.00;;
70558;SDS011;58108;48.094;11.838;2023-07-13T06:48:24;5.47;;;1.70;;
70558;SDS011;58108;48.094;11.838;2023-07-13T06:50:50;4.53;;;2.00;;
70558;SDS011;58108;48.094;11.838;2023-07-13T06:53:17;4.18;;;2.00;;
70558;SDS011;58108;48.094;11.838;2023-07-13T06:55:43;5.93;;;2.10;;
70558;SDS011;58108;48.094;11.838;2023-07-13T06:58:08;5.55;;;1.77;;
70558;SDS011;58108;48.094;11.838;2023-07-13T07:00:33;5.17;;;1.73;;
70558;SDS011;58108;48.094;11.838;2023-07-13T07:02:59;4.40;;;2.17;;
70558;SDS011;58108;48.094;11.838;2023-07-13T07:05:24;6.73;;;2.47;;
70558;SDS011;58108;48.094;11.838;2023-07-13T07:07:50;4.57;;;1.90;;
70558;SDS011;58108;48.094;11.838;2023-07-13T07:10:16;4.15;;;1.30;;
70558;SDS011;58108;48.094;11.838;2023-07-13T07:12:41;6.03;;;2.17;;
70558;SDS011;58108;48.094;11.838;2023-07-13T07:15:06;6.97;;;2.20;;
70558;SDS011;58108;48.094;11.838;2023-07-13T07:17:32;4.37;;;2.00;;
70558;SDS011;58108;48.094;11.838;2023-07-13T07:19:57;4.37;;;2.07;;
70558;SDS011;58108;48.094;11.838;2023-07-13T07:22:22;3.83;;;1.90;;
70558;SDS011;58108;48.094;11.838;2023-07-13T07:24:47;5.90;;;2.10;;
70558;SDS011;58108;48.094;11.838;2023-07-13T07:27:12;4.07;;;1.97;;
70558;SDS011;58108;48.094;11.838;2023-07-13T07:29:38;3.97;;;2.00;;
70558;SDS011;58108;48.094;11.838;2023-07-13T07:32:03;8.10;;;3.77;;
70558;SDS011;58108;48.094;11.838;2023-07-13T07:34:29;5.30;;;2.33;;
70558;SDS011;58108;48.094;11.838;2023-07-13T07:36:56;4.40;;;2.20;;
70558;SDS011;58108;48.094;11.838;2023-07-13T07:39:21;5.28;;;2.22;;
70558;SDS011;58108;48.094;11.838;2023-07-13T07:41:46;5.33;;;1.87;;
70558;SDS011;58108;48.094;11.838;2023-07-13T07:44:12;5.90;;;2.00;;
70558;SDS011;58108;48.094;11.838;2023-07-13T07:46:37;6.27;;;2.03;;
70558;SDS011;58108;48.094;11.838;2023-07-13T07:49:02;6.47;;;2.10;;
70558;SDS011;58108;48.094;11.838;2023-07-13T07:51:27;6.33;;;2.30;;
70558;SDS011;58108;48.094;11.838;2023-07-13T07:53:53;4.70;;;2.40;;
70558;SDS011;58108;48.094;11.838;2023-07-13T07:56:18;7.00;;;2.87;;
70558;SDS011;58108;48.094;11.838;2023-07-13T07:58:43;7.57;;;2.30;;
70558;SDS011;58108;48.094;11.838;2023-07-13T08:01:09;5.70;;;2.25;;
70558;SDS011;58108;48.094;11.838;2023-07-13T08:03:34;4.47;;;1.97;;
70558;SDS011;58108;48.094;11.838;2023-07-13T08:05:59;6.00;;;1.70;;
70558;SDS011;58108;48.094;11.838;2023-07-13T08:08:25;4.10;;;2.23;;
70558;SDS011;58108;48.094;11.838;2023-07-13T08:10:50;5.10;;;2.20;;
70558;SDS011;58108;48.094;11.838;2023-07-13T08:13:15;6.53;;;2.07;;
70558;SDS011;58108;48.094;11.838;2023-07-13T08:15:40;6.50;;;2.17;;
70558;SDS011;58108;48.094;11.838;2023-07-13T08:18:06;7.27;;;2.40;;
70558;SDS011;58108;48.094;11.838;2023-07-13T08:20:32;5.07;;;2.40;;
70558;SDS011;58108;48.094;11.838;2023-07-13T08:22:57;6.20;;;2.10;;
70558;SDS011;58108;48.094;11.838;2023-07-13T08:25:22;4.28;;;1.98;;
70558;SDS011;58108;48.094;11.838;2023-07-13T08:27:48;5.83;;;2.67;;
70558;SDS011;58108;48.094;11.838;2023-07-13T08:30:13;5.13;;;2.60;;
70558;SDS011;58108;48.094;11.838;2023-07-13T08:32:38;5.60;;;2.00;;
70558;SDS011;58108;48.094;11.838;2023-07-13T08:35:04;5.00;;;2.40;;
70558;SDS011;58108;48.094;11.838;2023-07-13T08:37:29;4.80;;;2.57;;
70558;SDS011;58108;48.094;11.838;2023-07-13T08:39:54;8.03;;;2.13;;
70558;SDS011;58108;48.094;11.838;2023-07-13T08:47:22;7.35;;;2.67;;
70558;SDS011;58108;48.094;11.838;2023-07-13T08:49:48;5.60;;;2.33;;
70558;SDS011;58108;48.094;11.838;2023-07-13T08:52:16;5.70;;;2.10;;
70558;SDS011;58108;48.094;11.838;2023-07-13T08:54:45;6.10;;;2.42;;
70558;SDS011;58108;48.094;11.838;2023-07-13T08:57:15;5.83;;;2.40;;
70558;SDS011;58108;48.094;11.838;2023-07-13T08:59:41;6.03;;;2.20;;
70558;SDS011;58108;48.094;11.838;2023-07-13T09:02:15;4.73;;;2.30;;
70558;SDS011;58108;48.094;11.838;2023-07-13T09:04:42;6.15;;;2.30;;
70558;SDS011;58108;48.094;11.838;2023-07-13T09:10:05;6.32;;;2.40;;
70558;SDS011;58108;48.094;11.838;2023-07-13T09:12:38;5.68;;;2.10;;
70558;SDS011;58108;48.094;11.838;2023-07-13T09:15:07;4.97;;;2.40;;
70558;SDS011;58108;48.094;11.838;2023-07-13T09:17:44;7.10;;;2.28;;
70558;SDS011;58108;48.094;11.838;2023-07-13T09:22:38;9.05;;;2.78;;
70558;SDS011;58108;48.094;11.838;2023-07-13T09:27:30;5.83;;;2.97;;
70558;SDS011;58108;48.094;11.838;2023-07-13T09:30:30;5.35;;;2.60;;
70558;SDS011;58108;48.094;11.838;2023-07-13T09:32:49;7.43;;;3.15;;
70558;SDS011;58108;48.094;11.838;2023-07-13T09:35:16;5.00;;;2.70;;
70558;SDS011;58108;48.094;11.838;2023-07-13T09:37:42;7.33;;;2.90;;
70558;SDS011;58108;48.094;11.838;2023-07-13T09:40:11;5.50;;;2.70;;
70558;SDS011;58108;48.094;11.838;2023-07-13T09:42:38;5.10;;;2.50;;
70558;SDS011;58108;48.094;11.838;2023-07-13T09:45:03;6.23;;;2.20;;
70558;SDS011;58108;48.094;11.838;2023-07-13T09:47:31;4.65;;;2.30;;
70558;SDS011;58108;48.094;11.838;2023-07-13T09:50:01;6.82;;;2.40;;
70558;SDS011;58108;48.094;11.838;2023-07-13T09:52:27;5.73;;;2.40;;
70558;SDS011;58108;48.094;11.838;2023-07-13T09:54:53;5.40;;;2.30;;
70558;SDS011;58108;48.094;11.838;2023-07-13T09:57:24;4.45;;;2.47;;
70558;SDS011;58108;48.094;11.838;2023-07-13T09:59:51;5.82;;;2.08;;
70558;SDS011;58108;48.094;11.838;2023-07-13T10:02:27;4.93;;;2.33;;
70558;SDS011;58108;48.094;11.838;2023-07-13T10:04:58;6.30;;;2.30;;
70558;SDS011;58108;48.094;11.838;2023-07-13T10:07:23;6.13;;;2.42;;
70558;SDS011;58108;48.094;11.838;2023-07-13T10:09:53;5.00;;;2.38;;
70558;SDS011;58108;48.094;11.838;2023-07-13T10:12:19;5.10;;;2.40;;
70558;SDS011;58108;48.094;11.838;2023-07-13T10:14:44;5.00;;;2.30;;
70558;SDS011;58108;48.094;11.838;2023-07-13T10:17:10;6.60;;;2.47;;
70558;SDS011;58108;48.094;11.838;2023-07-13T10:19:37;5.17;;;2.20;;
70558;SDS011;58108;48.094;11.838;2023-07-13T10:22:10;6.45;;;2.03;;
70558;SDS011;58108;48.094;11.838;2023-07-13T10:24:38;4.85;;;2.10;;
70558;SDS011;58108;48.094;11.838;2023-07-13T10:27:12;5.23;;;2.67;;
70558;SDS011;58108;48.094;11.838;2023-07-13T10:29:42;7.38;;;2.42;;
70558;SDS011;58108;48.094;11.838;2023-07-13T10:32:11;5.65;;;2.50;;
70558;SDS011;58108;48.094;11.838;2023-07-13T10:34:37;5.25;;;2.20;;
70558;SDS011;58108;48.094;11.838;2023-07-13T10:37:02;6.63;;;2.10;;
70558;SDS011;58108;48.094;11.838;2023-07-13T10:39:29;4.35;;;2.10;;
70558;SDS011;58108;48.094;11.838;2023-07-13T10:42:03;3.63;;;1.87;;
70558;SDS011;58108;48.094;11.838;2023-07-13T10:44:30;4.03;;;1.77;;
70558;SDS011;58108;48.094;11.838;2023-07-13T10:46:57;4.47;;;1.70;;
70558;SDS011;58108;48.094;11.838;2023-07-13T10:49:23;3.60;;;1.67;;
70558;SDS011;58108;48.094;11.838;2023-07-13T10:51:48;4.18;;;1.55;;
70558;SDS011;58108;48.094;11.838;2023-07-13T10:56:41;6.53;;;1.60;;
70558;SDS011;58108;48.094;11.838;2023-07-13T10:59:11;7.33;;;1.70;;
70558;SDS011;58108;48.094;11.838;2023-07-13T11:02:21;6.23;;;1.80;;
70558;SDS011;58108;48.094;11.838;2023-07-13T11:04:29;4.85;;;2.00;;
70558;SDS011;58108;48.094;11.838;2023-07-13T11:06:58;5.70;;;1.80;;
70558;SDS011;58108;48.094;11.838;2023-07-13T11:09:32;5.38;;;1.60;;
70558;SDS011;58108;48.094;11.838;2023-07-13T11:12:01;4.32;;;1.30;;
70558;SDS011;58108;48.094;11.838;2023-07-13T11:14:35;3.50;;;1.70;;
70558;SDS011;58108;48.094;11.838;2023-07-13T11:19:47;5.88;;;2.13;;
70558;SDS011;58108;48.094;11.838;2023-07-13T11:22:16;3.53;;;1.70;;
70558;SDS011;58108;48.094;11.838;2023-07-13T11:24:51;4.27;;;1.50;;
70558;SDS011;58108;48.094;11.838;2023-07-13T11:27:21;3.45;;;1.52;;
70558;SDS011;58108;48.094;11.838;2023-07-13T11:29:48;2.80;;;1.23;;
70558;SDS011;58108;48.094;11.838;2023-07-13T11:32:23;3.70;;;1.40;;
70558;SDS011;58108;48.094;11.838;2023-07-13T11:34:51;4.05;;;1.60;;
70558;SDS011;58108;48.094;11.838;2023-07-13T11:37:18;5.43;;;1.70;;
70558;SDS011;58108;48.094;11.838;2023-07-13T11:39:44;4.95;;;1.67;;
70558;SDS011;58108;48.094;11.838;2023-07-13T11:42:12;4.60;;;1.50;;
70558;SDS011;58108;48.094;11.838;2023-07-13T11:44:41;3.30;;;1.08;;
70558;SDS011;58108;48.094;11.838;2023-07-13T11:47:11;4.20;;;1.60;;
70558;SDS011;58108;48.094;11.838;2023-07-13T11:49:48;4.20;;;1.63;;
70558;SDS011;58108;48.094;11.838;2023-07-13T11:52:21;4.75;;;1.60;;
70558;SDS011;58108;48.094;11.838;2023-07-13T11:54:54;5.50;;;1.50;;
70558;SDS011;58108;48.094;11.838;2023-07-13T11:59:54;3.72;;;1.50;;
70558;SDS011;58108;48.094;11.838;2023-07-13T12:02:29;3.83;;;1.50;;
70558;SDS011;58108;48.094;11.838;2023-07-13T12:04:56;4.03;;;1.70;;
70558;SDS011;58108;48.094;11.838;2023-07-13T12:07:22;5.13;;;1.83;;
70558;SDS011;58108;48.094;11.838;2023-07-13T12:09:47;5.32;;;2.38;;
70558;SDS011;58108;48.094;11.838;2023-07-13T12:12:21;4.50;;;2.00;;
70558;SDS011;58108;48.094;11.838;2023-07-13T12:14:50;4.65;;;1.42;;
70558;SDS011;58108;48.094;11.838;2023-07-13T12:17:18;5.03;;;1.70;;
70558;SDS011;58108;48.094;11.838;2023-07-13T12:19:43;3.95;;;1.80;;
70558;SDS011;58108;48.094;11.838;2023-07-13T12:22:09;3.10;;;1.60;;
70558;SDS011;58108;48.094;11.838;2023-07-13T12:24:36;5.28;;;1.75;;
70558;SDS011;58108;48.094;11.838;2023-07-13T12:27:02;4.73;;;1.77;;
70558;SDS011;58108;48.094;11.838;2023-07-13T12:29:32;3.40;;;1.55;;
70558;SDS011;58108;48.094;11.838;2023-07-13T12:31:57;4.85;;;1.58;;
70558;SDS011;58108;48.094;11.838;2023-07-13T12:34:24;5.57;;;1.70;;
70558;SDS011;58108;48.094;11.838;2023-07-13T12:36:51;4.45;;;1.70;;
70558;SDS011;58108;48.094;11.838;2023-07-13T12:41:48;4.15;;;1.55;;
70558;SDS011;58108;48.094;11.838;2023-07-13T12:44:31;5.43;;;1.70;;
70558;SDS011;58108;48.094;11.838;2023-07-13T12:47:06;4.85;;;1.58;;
70558;SDS011;58108;48.094;11.838;2023-07-13T12:49:39;3.72;;;1.35;;
70558;SDS011;58108;48.094;11.838;2023-07-13T12:52:10;4.43;;;1.60;;
70558;SDS011;58108;48.094;11.838;2023-07-13T12:54:39;3.40;;;1.30;;
70558;SDS011;58108;48.094;11.838;2023-07-13T12:57:04;3.23;;;1.30;;
70558;SDS011;58108;48.094;11.838;2023-07-13T12:59:34;3.40;;;1.03;;
70558;SDS011;58108;48.094;11.838;2023-07-13T13:02:01;3.83;;;1.40;;
70558;SDS011;58108;48.094;11.838;2023-07-13T13:04:27;3.40;;;1.30;;
70558;SDS011;58108;48.094;11.838;2023-07-13T13:07:03;3.30;;;1.50;;
70558;SDS011;58108;48.094;11.838;2023-07-13T13:09:28;3.97;;;1.55;;
70558;SDS011;58108;48.094;11.838;2023-07-13T13:11:54;3.17;;;1.13;;
70558;SDS011;58108;48.094;11.838;2023-07-13T13:14:19;4.10;;;1.30;;
70558;SDS011;58108;48.094;11.838;2023-07-13T13:16:46;3.43;;;1.30;;
70558;SDS011;58108;48.094;11.838;2023-07-13T13:19:17;3.90;;;1.45;;
70558;SDS011;58108;48.094;11.838;2023-07-13T13:21:43;4.90;;;1.60;;
70558;SDS011;58108;48.094;11.838;2023-07-13T13:24:12;6.23;;;1.60;;
70558;SDS011;58108;48.094;11.838;2023-07-13T13:26:38;3.17;;;1.70;;
70558;SDS011;58108;48.094;11.838;2023-07-13T13:29:13;3.33;;;1.40;;
70558;SDS011;58108;48.094;11.838;2023-07-13T13:31:39;3.47;;;1.40;;
70558;SDS011;58108;48.094;11.838;2023-07-13T13:34:07;4.00;;;1.40;;
70558;SDS011;58108;48.094;11.838;2023-07-13T13:36:32;2.97;;;1.45;;
70558;SDS011;58108;48.094;11.838;2023-07-13T13:38:57;3.83;;;1.63;;
70558;SDS011;58108;48.094;11.838;2023-07-13T13:41:22;6.00;;;1.50;;
70558;SDS011;58108;48.094;11.838;2023-07-13T13:43:48;3.07;;;1.50;;
70558;SDS011;58108;48.094;11.838;2023-07-13T13:46:14;4.27;;;1.50;;
70558;SDS011;58108;48.094;11.838;2023-07-13T13:48:40;4.78;;;1.63;;
70558;SDS011;58108;48.094;11.838;2023-07-13T13:51:39;3.13;;;1.63;;
70558;SDS011;58108;48.094;11.838;2023-07-13T13:53:57;3.70;;;1.40;;
70558;SDS011;58108;48.094;11.838;2023-07-13T13:56:22;3.80;;;1.60;;
70558;SDS011;58108;48.094;11.838;2023-07-13T13:58:47;4.47;;;1.60;;
70558;SDS011;58108;48.094;11.838;2023-07-13T14:01:13;4.43;;;1.40;;
70558;SDS011;58108;48.094;11.838;2023-07-13T14:03:41;3.58;;;1.60;;
70558;SDS011;58108;48.094;11.838;2023-07-13T14:06:07;3.47;;;1.30;;
70558;SDS011;58108;48.094;11.838;2023-07-13T14:08:33;4.82;;;1.38;;
70558;SDS011;58108;48.094;11.838;2023-07-13T14:10:58;2.53;;;1.20;;
70558;SDS011;58108;48.094;11.838;2023-07-13T14:13:26;3.30;;;1.30;;
70558;SDS011;58108;48.094;11.838;2023-07-13T14:15:52;3.13;;;1.37;;
70558;SDS011;58108;48.094;11.838;2023-07-13T14:18:17;2.88;;;1.20;;
70558;SDS011;58108;48.094;11.838;2023-07-13T14:20:46;2.63;;;1.33;;
70558;SDS011;58108;48.094;11.838;2023-07-13T14:23:12;2.75;;;1.38;;
70558;SDS011;58108;48.094;11.838;2023-07-13T14:25:38;3.95;;;1.48;;
70558;SDS011;58108;48.094;11.838;2023-07-13T14:28:06;5.03;;;1.50;;
70558;SDS011;58108;48.094;11.838;2023-07-13T14:30:37;2.57;;;1.20;;
70558;SDS011;58108;48.094;11.838;2023-07-13T14:33:04;3.30;;;1.15;;
70558;SDS011;58108;48.094;11.838;2023-07-13T14:35:32;3.53;;;1.25;;
70558;SDS011;58108;48.094;11.838;2023-07-13T14:37:58;3.65;;;1.10;;
70558;SDS011;58108;48.094;11.838;2023-07-13T14:40:28;3.28;;;1.45;;
70558;SDS011;58108;48.094;11.838;2023-07-13T14:42:53;2.97;;;1.17;;
70558;SDS011;58108;48.094;11.838;2023-07-13T14:45:19;2.93;;;1.30;;
70558;SDS011;58108;48.094;11.838;2023-07-13T14:47:44;2.83;;;1.20;;
70558;SDS011;58108;48.094;11.838;2023-07-13T14:52:38;2.78;;;1.38;;
70558;SDS011;58108;48.094;11.838;2023-07-13T14:55:04;3.03;;;1.30;;